Time;durP1;ratioP1;P1;durP2;ratioP2;P2;SDS_P1;SDS_P2;PMS_P1;PMS_P2;Temp;Humidity;BMP_temperature;BMP_pressure;BME280_temperature;BME280_humidity;BME280_pressure;Samples;Min_cycle;Max_cycle;Signal;HPM_P1;HPM_P2
2022/10/17 00:01:37;;;;;;;11.50;10.38;;;;;;;28.82;62.28;100947.84;5052592;28;70885;-38
2022/10/17 00:04:08;;;;;;;11.63;10.70;;;;;;;28.89;62.77;100960.31;5058650;28;66169;-37
2022/10/17 00:06:39;;;;;;;15.48;11.88;;;;;;;28.91;63.90;100952.81;5060029;28;69984;-38
2022/10/17 00:09:10;;;;;;;15.30;11.68;;;;;;;28.95;63.57;100956.81;5057638;28;65653;-39
2022/10/17 00:11:41;;;;;;;13.32;11.15;;;;;;;28.98;63.95;100949.34;5060235;28;69973;-38
2022/10/17 00:14:11;;;;;;;11.57;10.45;;;;;;;28.98;64.40;100952.84;5059415;28;66244;-38
2022/10/17 00:16:42;;;;;;;12.20;10.88;;;;;;;29.07;64.91;100970.56;5061234;28;70819;-38
2022/10/17 00:19:13;;;;;;;12.60;9.75;;;;;;;29.12;64.92;100964.53;5060943;27;66785;-39
2022/10/17 00:21:43;;;;;;;13.27;10.25;;;;;;;29.15;65.18;100964.94;5061312;28;70016;-38
2022/10/17 00:24:13;;;;;;;12.23;11.00;;;;;;;29.16;65.75;100961.19;5060475;28;66449;-42
2022/10/17 00:26:44;;;;;;;13.15;11.45;;;;;;;29.19;65.27;100965.34;5054345;28;69817;-34
2022/10/17 00:29:15;;;;;;;12.13;10.90;;;;;;;29.15;64.93;100954.16;5051082;28;66540;-37
2022/10/17 00:31:48;;;;;;;11.93;10.23;;;;;;;29.17;65.32;100957.47;5056438;28;70258;-37
2022/10/17 00:34:18;;;;;;;11.88;10.68;;;;;;;29.25;65.66;100967.22;5062375;28;66856;-36
2022/10/17 00:36:49;;;;;;;14.10;9.65;;;;;;;29.28;65.69;100969.53;5061831;28;69408;-37
2022/10/17 00:39:19;;;;;;;11.57;10.45;;;;;;;29.29;65.23;100967.66;5056903;28;66509;-37
2022/10/17 00:41:50;;;;;;;11.48;10.40;;;;;;;29.30;64.97;100962.03;5053406;28;70069;-37
2022/10/17 00:44:30;;;;;;;10.45;9.40;;;;;;;29.29;64.71;100976.59;5047613;28;65795;-37
2022/10/17 00:47:05;;;;;;;10.82;10.00;;;;;;;29.35;64.63;100975.75;5059302;28;70012;-36
2022/10/17 00:49:37;;;;;;;10.57;9.80;;;;;;;29.36;65.10;100977.44;5051295;28;66290;-37
2022/10/17 00:52:37;;;;;;;9.45;8.73;;;;;;;29.19;64.95;100981.56;5060268;28;69698;-37
2022/10/17 00:55:24;;;;;;;11.57;10.10;;;;;;;29.30;64.29;100972.03;5032191;28;66479;-36
2022/10/17 00:57:57;;;;;;;10.05;9.02;;;;;;;28.90;64.30;100897.19;5060542;28;70030;-36
2022/10/17 01:00:28;;;;;;;9.43;8.63;;;;;;;29.41;64.61;100979.50;5060104;28;65898;-36
2022/10/17 01:02:59;;;;;;;9.53;8.83;;;;;;;29.39;64.92;100977.03;5058929;28;70180;-37
2022/10/17 01:05:29;;;;;;;9.57;8.77;;;;;;;29.32;64.21;100959.97;5060853;28;65481;-36
2022/10/17 01:08:01;;;;;;;10.00;9.00;;;;;;;29.49;64.38;100981.16;5053229;28;70670;-36
2022/10/17 01:10:49;;;;;;;9.55;8.88;;;;;;;28.45;64.09;100834.00;5053201;28;66383;-36
2022/10/17 01:13:27;;;;;;;10.02;9.30;;;;;;;29.51;64.41;100987.22;5059313;28;70535;-37
2022/10/17 01:16:35;;;;;;;9.85;9.07;;;;;;;28.99;64.67;100918.56;5058921;28;67052;-37
2022/10/17 01:19:19;;;;;;;9.93;8.85;;;;;;;29.53;64.54;100990.50;5052714;28;70370;-37
2022/10/17 01:22:01;;;;;;;9.68;8.88;;;;;;;29.55;64.76;100991.13;5057452;28;66059;-36
2022/10/17 01:24:59;;;;;;;9.25;8.57;;;;;;;29.57;64.67;100983.66;5059932;28;70461;-36
2022/10/17 01:27:54;;;;;;;9.90;8.95;;;;;;;28.92;64.90;100905.09;5052018;28;66021;-36
2022/10/17 01:30:46;;;;;;;10.38;9.52;;;;;;;29.48;64.88;100993.03;5057751;28;70554;-36
2022/10/17 01:33:42;;;;;;;13.23;9.07;;;;;;;29.50;64.83;100996.34;5052392;28;66185;-36
2022/10/17 01:36:41;;;;;;;10.02;9.18;;;;;;;29.53;65.00;100995.91;5073184;27;70105;-36
2022/10/17 01:39:20;;;;;;;10.02;9.32;;;;;;;29.64;64.87;100992.63;5045764;28;66873;-36
2022/10/17 01:42:13;;;;;;;9.85;9.20;;;;;;;29.70;64.27;100989.09;5059237;28;70395;-36
2022/10/17 01:45:06;;;;;;;10.60;9.50;;;;;;;29.71;64.61;100996.16;5058561;28;66077;-36
2022/10/17 01:47:39;;;;;;;9.27;8.63;;;;;;;29.73;64.31;100994.09;5058347;28;70396;-36
2022/10/17 01:50:18;;;;;;;9.65;8.88;;;;;;;29.42;64.57;100947.91;5059967;28;66662;-37
2022/10/17 01:52:57;;;;;;;9.70;9.00;;;;;;;29.77;64.28;101013.41;5057899;28;70139;-36
2022/10/17 01:55:41;;;;;;;9.68;8.73;;;;;;;29.69;64.57;100992.81;5055940;28;66315;-35
2022/10/17 01:58:28;;;;;;;9.63;8.88;;;;;;;29.77;64.27;100998.00;5058094;28;69834;-35
2022/10/17 02:01:05;;;;;;;10.23;9.50;;;;;;;29.83;64.34;100999.03;5060519;28;65481;-35
2022/10/17 02:03:40;;;;;;;9.18;8.43;;;;;;;29.87;64.30;101000.31;5060567;28;70406;-35
2022/10/17 02:06:10;;;;;;;8.07;7.50;;;;;;;29.79;64.27;100981.59;5058070;28;65760;-35
2022/10/17 02:08:44;;;;;;;9.27;8.48;;;;;;;29.93;64.72;100998.63;5060112;28;70516;-35
2022/10/17 02:11:25;;;;;;;9.23;8.57;;;;;;;29.76;64.51;100977.44;5057700;28;66360;-37
2022/10/17 02:14:27;;;;;;;9.25;8.48;;;;;;;29.95;64.43;100996.53;5054183;28;69271;-37
2022/10/17 02:17:09;;;;;;;9.38;8.50;;;;;;;29.35;64.53;100910.09;5040844;28;65482;-36
2022/10/17 02:19:48;;;;;;;8.37;7.87;;;;;;;29.96;64.49;100998.19;5060460;28;70266;-38
2022/10/17 02:22:30;;;;;;;8.02;7.53;;;;;;;30.04;64.54;101008.81;5042504;28;66063;-36
2022/10/17 02:25:16;;;;;;;8.75;8.05;;;;;;;29.97;64.73;101005.25;5060003;28;69821;-37
2022/10/17 02:28:22;;;;;;;8.82;8.15;;;;;;;30.02;64.68;101000.06;5056960;28;66051;-36
2022/10/17 02:30:57;;;;;;;8.23;7.78;;;;;;;30.11;64.93;100996.06;5049537;28;70614;-39
2022/10/17 02:33:36;;;;;;;8.13;7.63;;;;;;;29.70;64.79;100916.09;5061450;28;65929;-36
2022/10/17 02:36:17;;;;;;;7.72;7.03;;;;;;;29.70;64.59;100920.66;5060452;28;70652;-37
2022/10/17 02:38:51;;;;;;;8.50;7.90;;;;;;;29.71;64.22;100909.63;5062157;28;66409;-36
2022/10/17 02:41:23;;;;;;;8.27;7.78;;;;;;;29.26;64.43;100828.44;5061514;28;70314;-36
2022/10/17 02:43:54;;;;;;;7.30;6.90;;;;;;;30.26;64.64;100983.16;5061430;28;66349;-35
2022/10/17 02:46:31;;;;;;;8.63;7.22;;;;;;;30.29;64.62;100981.91;5063134;28;69286;-36
2022/10/17 02:49:13;;;;;;;7.70;7.20;;;;;;;30.32;64.17;100981.47;5075429;28;66687;-35
2022/10/17 02:52:07;;;;;;;7.38;6.90;;;;;;;30.30;64.72;100977.31;5051241;28;70393;-35
2022/10/17 02:54:48;;;;;;;8.20;7.60;;;;;;;30.38;63.96;100975.19;5061139;28;66216;-36
2022/10/17 02:57:35;;;;;;;6.80;6.30;;;;;;;29.92;64.01;100902.28;5059626;28;69833;-37
2022/10/17 03:00:08;;;;;;;7.93;7.35;;;;;;;30.45;63.87;100975.16;5063060;28;65988;-37
2022/10/17 03:02:45;;;;;;;7.68;7.18;;;;;;;30.46;63.96;100971.44;5061307;28;69400;-38
2022/10/17 03:05:19;;;;;;;6.82;6.32;;;;;;;30.51;63.59;100963.50;5060599;28;65574;-35
2022/10/17 03:07:51;;;;;;;6.47;6.18;;;;;;;30.53;63.64;100960.56;5061619;28;70278;-36
2022/10/17 03:10:22;;;;;;;7.87;7.23;;;;;;;30.54;63.39;100946.81;5062091;28;65688;-37
2022/10/17 03:12:53;;;;;;;7.55;7.05;;;;;;;30.55;63.62;100943.06;5063732;28;70052;-36
2022/10/17 03:15:24;;;;;;;7.28;6.78;;;;;;;30.58;63.60;100939.91;5057508;28;66045;-37
2022/10/17 03:17:55;;;;;;;6.88;6.32;;;;;;;30.57;63.37;100929.31;5062890;28;70523;-36
2022/10/17 03:20:26;;;;;;;7.80;7.20;;;;;;;30.55;63.18;100921.41;5061692;28;66182;-37
2022/10/17 03:22:56;;;;;;;7.18;6.68;;;;;;;30.67;62.89;100925.09;5061447;28;70076;-36
2022/10/17 03:25:28;;;;;;;7.07;6.57;;;;;;;30.68;63.31;100926.72;5060766;28;66603;-36
2022/10/17 03:28:00;;;;;;;6.87;6.27;;;;;;;30.71;62.71;100917.34;5061385;28;69565;-36
2022/10/17 03:30:31;;;;;;;6.57;6.07;;;;;;;30.73;62.81;100907.97;5055695;28;66168;-36
2022/10/17 03:33:02;;;;;;;6.57;6.00;;;;;;;30.74;62.90;100897.94;5050344;28;69856;-36
2022/10/17 03:35:32;;;;;;;7.05;6.53;;;;;;;30.79;62.43;100905.44;5061152;28;67194;-36
2022/10/17 03:38:02;;;;;;;6.47;5.97;;;;;;;30.82;62.64;100899.59;5047758;28;69761;-37
2022/10/17 03:40:33;;;;;;;6.57;6.07;;;;;;;30.84;62.24;100892.91;5054421;28;67089;-37
2022/10/17 03:43:05;;;;;;;6.25;5.88;;;;;;;30.77;62.43;100875.84;5060237;28;69611;-37
2022/10/17 03:45:36;;;;;;;6.60;5.93;;;;;;;30.86;62.37;100884.56;5059702;28;66501;-35
2022/10/17 03:48:06;;;;;;;6.85;6.28;;;;;;;30.90;62.22;100885.78;5059915;28;69982;-36
2022/10/17 03:50:37;;;;;;;6.53;6.13;;;;;;;30.90;61.85;100883.91;5060041;28;65874;-37
2022/10/17 03:53:09;;;;;;;6.43;6.03;;;;;;;30.81;61.76;100854.59;5058680;28;70598;-35
2022/10/17 03:55:40;;;;;;;5.88;5.50;;;;;;;30.93;61.75;100875.34;5055037;28;66712;-35
2022/10/17 03:58:11;;;;;;;5.93;5.55;;;;;;;30.96;61.45;100873.25;5059223;28;69969;-35
2022/10/17 04:00:41;;;;;;;6.15;5.65;;;;;;;30.93;61.80;100858.25;5059864;28;66229;-37
2022/10/17 04:03:11;;;;;;;6.25;5.85;;;;;;;30.99;61.61;100857.38;5060494;28;69737;-36
2022/10/17 04:05:45;;;;;;;6.30;5.90;;;;;;;31.00;61.58;100853.59;5061206;28;66054;-36
2022/10/17 04:08:16;;;;;;;6.50;6.05;;;;;;;31.02;61.73;100856.91;5058927;28;70334;-35
2022/10/17 04:11:18;;;;;;;6.72;6.32;;;;;;;31.03;61.63;100850.44;5041040;28;66375;-36
2022/10/17 04:13:54;;;;;;;6.85;6.07;;;;;;;30.97;61.59;100832.38;5056501;28;70521;-37
2022/10/17 04:16:27;;;;;;;6.70;6.20;;;;;;;31.00;61.25;100825.69;5060128;28;66515;-36
2022/10/17 04:19:01;;;;;;;5.78;5.47;;;;;;;31.06;61.24;100831.03;5060020;28;69591;-37
2022/10/17 04:21:38;;;;;;;5.90;5.50;;;;;;;31.09;61.28;100827.91;5059798;28;65425;-37
2022/10/17 04:24:11;;;;;;;5.90;5.57;;;;;;;30.98;61.26;100812.38;5056910;28;70245;-35
2022/10/17 04:26:50;;;;;;;5.97;5.47;;;;;;;31.13;61.32;100806.59;5060820;28;66553;-37
2022/10/17 04:29:24;;;;;;;6.88;6.38;;;;;;;31.15;61.22;100810.75;5054499;28;70298;-37
2022/10/17 04:32:02;;;;;;;5.75;5.43;;;;;;;31.16;60.97;100790.72;5058987;28;66064;-37
2022/10/17 04:34:49;;;;;;;6.45;6.05;;;;;;;31.16;61.00;100790.72;5059315;28;70477;-36
2022/10/17 04:37:22;;;;;;;6.10;5.70;;;;;;;31.21;60.96;100789.22;5055005;28;66415;-36
2022/10/17 04:39:55;;;;;;;5.80;5.40;;;;;;;31.20;61.15;100787.56;5060160;28;70137;-36
2022/10/17 04:42:27;;;;;;;6.25;5.63;;;;;;;31.26;60.74;100786.66;5058961;28;66535;-35
2022/10/17 04:44:58;;;;;;;9.23;5.95;;;;;;;31.22;60.53;100771.91;5043265;28;69851;-35
2022/10/17 04:47:29;;;;;;;6.45;5.95;;;;;;;31.29;60.79;100780.81;5058881;28;66279;-36
2022/10/17 04:50:00;;;;;;;6.70;6.10;;;;;;;31.29;60.44;100778.91;5059703;28;69596;-35
2022/10/17 04:52:38;;;;;;;7.45;5.55;;;;;;;31.33;60.38;100776.56;5059652;28;66476;-37
2022/10/17 04:55:09;;;;;;;6.57;5.90;;;;;;;31.31;60.68;100763.22;5058132;28;70486;-37
2022/10/17 04:57:41;;;;;;;7.25;6.50;;;;;;;31.33;60.48;100763.03;5058456;28;66147;-37
2022/10/17 05:00:22;;;;;;;6.25;5.82;;;;;;;31.35;60.20;100758.22;5058399;28;70196;-36
2022/10/17 05:03:15;;;;;;;6.47;5.88;;;;;;;31.37;60.46;100748.84;5051096;28;65409;-36
2022/10/17 05:05:45;;;;;;;6.43;6.03;;;;;;;31.38;60.23;100753.19;5058062;28;69384;-36
2022/10/17 05:08:16;;;;;;;6.38;5.88;;;;;;;31.40;60.25;100742.13;5059096;28;65744;-36
2022/10/17 05:10:46;;;;;;;6.95;6.10;;;;;;;31.43;60.05;100738.97;5058551;28;69724;-36
2022/10/17 05:13:17;;;;;;;11.77;6.17;;;;;;;31.42;60.33;100737.28;5058922;28;65562;-36
2022/10/17 05:15:49;;;;;;;6.40;5.90;;;;;;;31.37;60.25;100718.16;5056490;28;70058;-37
2022/10/17 05:18:19;;;;;;;6.07;5.60;;;;;;;31.46;60.15;100726.84;5058929;28;66985;-36
2022/10/17 05:20:50;;;;;;;5.90;5.50;;;;;;;31.45;60.08;100714.31;5059076;28;69204;-36
2022/10/17 05:23:21;;;;;;;5.72;5.15;;;;;;;31.47;60.20;100704.09;5059575;28;67077;-36
2022/10/17 05:25:55;;;;;;;6.82;6.13;;;;;;;31.52;60.05;100704.25;5058827;28;70744;-36
2022/10/17 05:28:26;;;;;;;5.80;5.30;;;;;;;31.44;59.98;100689.09;5064739;27;66613;-35
2022/10/17 05:31:05;;;;;;;6.00;5.50;;;;;;;30.67;59.47;100551.44;5055455;28;69605;-36
2022/10/17 05:33:36;;;;;;;6.25;5.65;;;;;;;31.58;59.72;100698.72;5057838;28;66474;-35
2022/10/17 05:36:07;;;;;;;6.13;5.68;;;;;;;31.58;59.78;100685.16;5058618;28;68903;-36
2022/10/17 05:38:37;;;;;;;5.97;5.57;;;;;;;31.61;59.44;100687.41;5059357;28;66848;-35
2022/10/17 05:41:10;;;;;;;5.45;5.15;;;;;;;31.65;59.70;100678.81;5056390;28;70780;-35
2022/10/17 05:43:40;;;;;;;6.93;6.13;;;;;;;31.65;59.59;100678.81;5059138;28;65709;-35
2022/10/17 05:46:12;;;;;;;6.50;5.90;;;;;;;31.66;59.69;100678.59;5059405;28;70329;-37
2022/10/17 05:48:43;;;;;;;6.40;6.00;;;;;;;31.69;59.75;100677.31;5060245;28;66574;-36
2022/10/17 05:51:14;;;;;;;5.88;5.38;;;;;;;31.69;59.25;100671.88;5042541;28;70443;-36
2022/10/17 05:53:45;;;;;;;6.28;5.88;;;;;;;31.72;59.62;100666.00;5059018;28;65480;-36
2022/10/17 05:56:22;;;;;;;5.82;5.43;;;;;;;31.75;59.45;100657.38;5059534;28;70392;-35
2022/10/17 05:58:54;;;;;;;5.95;5.45;;;;;;;31.75;59.33;100651.97;5058763;28;65802;-35
2022/10/17 06:01:40;;;;;;;5.97;5.38;;;;;;;31.79;59.62;100650.47;5058419;28;69296;-36
2022/10/17 06:04:10;;;;;;;5.80;5.40;;;;;;;31.81;59.11;100645.59;5058518;28;66563;-36
2022/10/17 06:06:41;;;;;;;5.90;5.55;;;;;;;31.85;59.15;100640.56;5057549;28;69591;-36
2022/10/17 06:09:13;;;;;;;5.57;5.22;;;;;;;31.85;59.05;100638.69;5059556;28;66070;-37
2022/10/17 06:11:47;;;;;;;7.90;5.90;;;;;;;31.89;58.94;100629.00;5059088;28;69528;-36
2022/10/17 06:14:18;;;;;;;6.50;5.95;;;;;;;31.93;59.12;100632.94;5056654;28;65738;-36
2022/10/17 06:16:52;;;;;;;6.13;5.57;;;;;;;31.90;58.93;100611.69;5059046;28;69977;-36
2022/10/17 06:19:23;;;;;;;7.63;5.60;;;;;;;31.78;58.89;100595.38;5041323;28;64857;-37
2022/10/17 06:21:54;;;;;;;6.22;5.82;;;;;;;31.98;59.20;100624.09;5054635;28;70623;-37
2022/10/17 06:24:26;;;;;;;5.43;5.10;;;;;;;31.99;59.07;100606.75;5058893;28;66820;-36
2022/10/17 06:26:58;;;;;;;5.50;5.20;;;;;;;32.01;58.98;100600.03;5057377;28;70062;-36
2022/10/17 06:29:28;;;;;;;6.07;5.68;;;;;;;32.06;58.68;100596.59;5042247;28;65515;-37
2022/10/17 06:31:59;;;;;;;5.72;5.32;;;;;;;31.95;58.50;100573.84;5058783;28;70175;-37
2022/10/17 06:34:35;;;;;;;6.32;5.82;;;;;;;32.10;58.88;100594.28;5057718;28;66716;-36
2022/10/17 06:37:06;;;;;;;5.30;5.00;;;;;;;32.13;58.57;100591.09;5047820;28;70071;-36
2022/10/17 06:39:38;;;;;;;5.45;5.15;;;;;;;32.11;58.61;100583.16;5056055;28;65517;-37
2022/10/17 06:42:18;;;;;;;5.53;5.13;;;;;;;32.16;58.67;100579.75;5059700;28;70825;-36
2022/10/17 06:45:28;;;;;;;5.53;5.22;;;;;;;32.17;58.48;100578.69;5009474;28;67071;-37
2022/10/17 06:48:16;;;;;;;5.90;5.32;;;;;;;32.19;58.39;100574.66;5014864;28;69462;-36
2022/10/17 06:51:11;;;;;;;6.05;5.65;;;;;;;32.25;58.31;100564.75;5045031;28;66177;-36
2022/10/17 06:53:49;;;;;;;6.03;5.57;;;;;;;32.27;58.29;100549.88;5057102;28;70395;-36
2022/10/17 06:56:47;;;;;;;5.75;5.30;;;;;;;32.18;58.33;100535.03;5049025;28;65821;-37
2022/10/17 06:59:38;;;;;;;6.35;5.30;;;;;;;32.34;58.17;100554.34;5058995;28;70379;-37
2022/10/17 07:02:22;;;;;;;11.38;5.90;;;;;;;32.36;58.17;100547.63;5055014;28;66694;-37
2022/10/17 07:04:55;;;;;;;5.53;5.03;;;;;;;32.41;58.34;100544.22;5043539;28;68810;-37
2022/10/17 07:07:25;;;;;;;6.35;5.45;;;;;;;32.43;58.11;100548.34;5055952;28;66070;-36
2022/10/17 07:09:56;;;;;;;6.28;4.90;;;;;;;32.41;57.93;100534.16;5058208;28;69537;-35
2022/10/17 07:12:27;;;;;;;5.73;5.20;;;;;;;32.48;58.11;100544.91;5057538;28;66310;-37
2022/10/17 07:14:57;;;;;;;5.75;5.35;;;;;;;32.53;57.91;100536.06;5057560;28;69238;-35
2022/10/17 07:17:28;;;;;;;5.35;4.90;;;;;;;32.55;57.54;100533.94;5058814;28;65299;-35
2022/10/17 07:19:59;;;;;;;5.38;5.00;;;;;;;32.57;57.91;100537.22;5061614;28;71515;-35
2022/10/17 07:22:33;;;;;;;5.93;5.10;;;;;;;32.33;57.84;100496.53;5053847;28;66336;-35
2022/10/17 07:25:04;;;;;;;7.00;4.97;;;;;;;32.64;57.54;100532.50;5062007;28;70599;-38
2022/10/17 07:27:40;;;;;;;8.57;5.38;;;;;;;32.66;57.58;100524.94;5060449;28;65084;-38
2022/10/17 07:30:12;;;;;;;5.43;4.93;;;;;;;32.68;57.60;100518.19;5054577;28;69671;-36
2022/10/17 07:32:54;;;;;;;5.43;4.90;;;;;;;32.70;57.56;100516.06;5055075;28;65579;-37
2022/10/17 07:35:25;;;;;;;5.45;4.95;;;;;;;32.72;57.58;100513.94;5059408;28;68957;-41
2022/10/17 07:37:56;;;;;;;5.43;5.03;;;;;;;32.76;57.37;100508.81;5055733;28;67074;-37
2022/10/17 07:40:28;;;;;;;4.85;4.40;;;;;;;32.81;57.44;100513.53;5055471;28;70539;-38
2022/10/17 07:43:00;;;;;;;5.35;4.97;;;;;;;32.85;57.51;100512.81;5059810;28;66608;-37
2022/10/17 07:45:32;;;;;;;6.82;4.82;;;;;;;32.87;57.13;100502.50;5061069;28;70204;-38
2022/10/17 07:48:04;;;;;;;7.28;4.82;;;;;;;32.55;57.27;100453.31;5063141;28;64882;-38
2022/10/17 07:50:35;;;;;;;5.28;4.88;;;;;;;32.90;57.06;100499.34;5060421;28;70240;-37
2022/10/17 07:53:06;;;;;;;5.07;4.68;;;;;;;32.99;56.89;100504.34;5062651;28;64989;-37
2022/10/17 07:55:37;;;;;;;4.75;4.35;;;;;;;33.00;57.31;100506.88;5061180;28;69748;-37
2022/10/17 07:58:09;;;;;;;6.05;4.82;;;;;;;32.97;57.15;100492.94;5041249;28;65304;-37
2022/10/17 08:00:40;;;;;;;4.63;4.18;;;;;;;33.03;56.75;100500.13;5060746;28;70570;-37
2022/10/17 08:03:12;;;;;;;5.05;4.75;;;;;;;33.02;56.80;100484.91;5057475;28;66016;-38
2022/10/17 08:05:42;;;;;;;6.13;4.90;;;;;;;33.11;56.60;100494.31;5055704;28;70230;-38
2022/10/17 08:08:13;;;;;;;6.85;4.47;;;;;;;33.15;56.63;100493.56;5059183;28;65667;-37
2022/10/17 08:10:43;;;;;;;5.20;4.80;;;;;;;33.07;56.68;100465.94;5059018;28;69782;-37
2022/10/17 08:13:14;;;;;;;5.20;4.65;;;;;;;33.21;56.56;100480.91;5060820;28;66738;-35
2022/10/17 08:15:46;;;;;;;5.30;4.80;;;;;;;33.17;56.19;100474.28;5061434;28;70123;-35
2022/10/17 08:18:17;;;;;;;5.00;4.60;;;;;;;33.24;56.42;100483.13;5059031;28;66527;-36
2022/10/17 08:20:47;;;;;;;5.03;4.68;;;;;;;33.23;56.32;100470.56;5063170;28;70712;-36
2022/10/17 08:23:18;;;;;;;9.20;4.78;;;;;;;33.19;56.08;100458.56;5062575;28;65448;-38
2022/10/17 08:25:48;;;;;;;5.72;4.70;;;;;;;33.29;56.01;100475.06;5059463;28;69945;-37
2022/10/17 08:28:19;;;;;;;4.93;4.55;;;;;;;33.33;56.15;100476.19;5062131;28;65796;-36
2022/10/17 08:30:49;;;;;;;4.55;4.25;;;;;;;33.34;56.37;100472.41;5060059;28;69503;-37
2022/10/17 08:33:20;;;;;;;5.25;4.72;;;;;;;33.36;56.01;100467.53;5057788;28;66776;-37
2022/10/17 08:35:50;;;;;;;4.75;4.45;;;;;;;33.37;56.12;100477.34;5057831;28;70012;-37
2022/10/17 08:38:22;;;;;;;4.85;4.55;;;;;;;33.39;56.23;100479.81;5060030;28;66269;-36
2022/10/17 08:41:02;;;;;;;4.93;4.43;;;;;;;32.57;55.69;100336.28;5040736;28;69137;-37
2022/10/17 08:43:59;;;;;;;5.10;4.75;;;;;;;33.26;55.98;100458.38;5058027;28;66667;-37
2022/10/17 08:46:37;;;;;;;5.25;4.40;;;;;;;32.94;55.63;100402.69;5053346;28;69584;-37
2022/10/17 08:49:34;;;;;;;6.35;4.60;;;;;;;32.96;55.80;100404.31;5057837;28;64994;-37
2022/10/17 08:52:31;;;;;;;5.15;4.75;;;;;;;32.90;55.46;100390.66;5060438;28;68932;-36
2022/10/17 08:55:02;;;;;;;5.95;4.60;;;;;;;33.49;55.71;100481.88;5057674;28;65707;-37
2022/10/17 08:57:32;;;;;;;4.90;4.50;;;;;;;33.43;55.59;100469.25;5057067;28;70212;-37
2022/10/17 09:00:12;;;;;;;4.40;4.10;;;;;;;33.52;55.62;100493.13;5059418;28;66345;-36
2022/10/17 09:03:07;;;;;;;6.97;4.30;;;;;;;33.44;55.57;100492.69;5059251;28;69768;-38
2022/10/17 09:06:09;;;;;;;4.75;4.35;;;;;;;33.14;55.27;100440.28;5060034;28;65331;-37
2022/10/17 09:08:57;;;;;;;5.22;4.50;;;;;;;33.33;55.66;100478.91;5058543;28;69444;-37
2022/10/17 09:11:58;;;;;;;4.95;4.65;;;;;;;33.46;55.45;100496.81;5054739;28;65770;-37
2022/10/17 09:14:41;;;;;;;4.32;4.03;;;;;;;33.51;55.33;100501.47;5059007;28;70252;-36
2022/10/17 09:17:25;;;;;;;4.30;4.00;;;;;;;33.50;55.41;100514.25;5072074;27;65669;-36
2022/10/17 09:20:05;;;;;;;5.65;4.38;;;;;;;33.55;55.34;100499.97;5059103;28;70067;-37
2022/10/17 09:23:04;;;;;;;4.80;4.40;;;;;;;33.56;55.08;100507.03;5055783;28;66764;-37
2022/10/17 09:25:43;;;;;;;4.93;4.63;;;;;;;33.07;55.38;100428.75;5060272;28;70323;-37
2022/10/17 09:28:34;;;;;;;4.85;4.07;;;;;;;33.58;55.38;100504.91;5060470;28;66141;-37
2022/10/17 09:31:09;;;;;;;;;;;;;;;33.33;55.91;100505.28;5059684;28;44423;-35
2022/10/17 09:33:43;;;;;;;5.95;4.32;;;;;;;33.11;55.34;100426.34;5061666;28;66711;-36
2022/10/17 09:36:30;;;;;;;5.47;4.97;;;;;;;33.20;55.68;100441.19;5056478;28;69381;-38
2022/10/17 09:39:14;;;;;;;4.80;4.50;;;;;;;33.57;55.46;100503.25;5061121;28;66424;-38
2022/10/17 09:41:53;;;;;;;5.40;5.00;;;;;;;33.57;55.00;100516.84;5058993;28;70607;-35
2022/10/17 09:45:03;;;;;;;7.97;4.72;;;;;;;33.30;55.55;100482.13;5059041;28;67224;-37
2022/10/17 09:47:40;;;;;;;5.50;4.97;;;;;;;33.55;55.50;100510.84;5053818;28;70628;-36
2022/10/17 09:50:29;;;;;;;5.13;4.72;;;;;;;33.52;55.29;100506.72;5059797;28;65450;-37
2022/10/17 09:53:33;;;;;;;5.50;5.03;;;;;;;33.05;55.32;100447.19;5060990;28;70137;-37
2022/10/17 09:56:12;;;;;;;5.85;4.90;;;;;;;33.53;55.58;100537.44;5033833;28;66050;-37
2022/10/17 09:58:48;;;;;;;4.97;4.65;;;;;;;33.55;55.61;100549.72;5058988;28;70453;-37
2022/10/17 10:01:22;;;;;;;5.32;4.85;;;;;;;33.04;55.61;100453.72;5058423;28;65501;-37
2022/10/17 10:04:12;;;;;;;7.28;5.15;;;;;;;32.94;55.67;100467.88;5060722;28;70257;-36
2022/10/17 10:07:06;;;;;;;5.55;4.95;;;;;;;32.90;55.75;100472.19;5052605;28;65128;-37
2022/10/17 10:09:37;;;;;;;5.70;5.13;;;;;;;33.49;55.82;100549.84;5052000;28;69377;-36
2022/10/17 10:12:20;;;;;;;5.30;4.90;;;;;;;33.42;55.65;100550.00;5055566;28;66378;-38
2022/10/17 10:14:52;;;;;;;7.05;5.03;;;;;;;33.45;56.07;100554.13;5059075;28;70547;-37
2022/10/17 10:17:33;;;;;;;6.15;4.78;;;;;;;33.46;55.75;100567.50;5059316;28;66758;-37
2022/10/17 10:20:34;;;;;;;7.13;4.78;;;;;;;33.34;55.85;100570.25;5059255;28;70344;-37
2022/10/17 10:23:17;;;;;;;4.82;4.35;;;;;;;33.40;55.93;100570.34;5060773;28;66623;-37
2022/10/17 10:25:58;;;;;;;;;;;;;;;33.13;56.57;100573.69;5061000;28;70080;-37
2022/10/17 10:28:34;;;;;;;6.28;5.05;;;;;;;33.31;56.07;100576.19;5058786;28;66033;-37
2022/10/17 10:31:08;;;;;;;5.47;4.95;;;;;;;32.77;56.14;100483.34;5058807;28;70773;-37
2022/10/17 10:33:42;;;;;;;6.38;5.93;;;;;;;33.25;56.09;100574.47;5058438;28;66239;-37
2022/10/17 10:36:21;;;;;;;6.43;5.68;;;;;;;33.33;56.28;100601.25;5055163;28;70127;-36
2022/10/17 10:38:55;;;;;;;6.88;6.18;;;;;;;32.79;59.88;100584.44;5055579;28;66712;-37
2022/10/17 10:41:46;;;;;;;6.35;5.95;;;;;;;32.63;61.03;100604.19;5051971;28;70046;-37
2022/10/17 10:44:23;;;;;;;7.75;6.82;;;;;;;32.10;61.99;100521.00;5055412;28;66387;-37
2022/10/17 10:47:19;;;;;;;7.72;6.90;;;;;;;32.42;62.29;100608.28;5058271;28;70215;-38
2022/10/17 10:50:05;;;;;;;7.20;6.70;;;;;;;31.95;62.76;100525.00;5067770;28;66825;-37
2022/10/17 10:52:48;;;;;;;7.53;6.82;;;;;;;32.35;63.48;100611.13;5062574;27;69960;-37
2022/10/17 10:55:24;;;;;;;12.13;6.38;;;;;;;32.35;63.63;100621.19;5064214;27;65428;-37
2022/10/17 10:57:59;;;;;;;7.82;7.20;;;;;;;31.97;63.49;100555.44;5058021;28;70441;-37
2022/10/17 11:00:34;;;;;;;9.57;6.95;;;;;;;32.30;64.45;100627.31;5057308;28;66405;-37
2022/10/17 11:03:10;;;;;;;14.68;6.70;;;;;;;32.31;63.48;100626.22;5066726;28;70028;-37
2022/10/17 11:05:50;;;;;;;7.97;7.28;;;;;;;32.40;64.55;100630.25;5061977;28;65335;-37
2022/10/17 11:08:34;;;;;;;9.13;7.43;;;;;;;32.59;63.37;100633.69;5058502;28;69366;-37
2022/10/17 11:11:16;;;;;;;9.18;7.28;;;;;;;32.70;63.04;100642.88;5059642;28;65562;-37
2022/10/17 11:13:49;;;;;;;;;;;;;;;32.45;64.17;100643.94;5057406;28;69633;-36
2022/10/17 11:16:36;;;;;;;9.02;8.07;;;;;;;32.76;62.84;100660.94;5061389;28;66591;-36
2022/10/17 11:19:30;;;;;;;8.07;7.47;;;;;;;32.80;62.63;100651.25;5060927;28;69490;-38
2022/10/17 11:22:16;;;;;;;8.18;7.05;;;;;;;32.78;62.98;100658.81;5062655;28;66042;-36
2022/10/17 11:25:18;;;;;;;8.43;7.57;;;;;;;32.65;63.01;100631.91;5058970;28;69305;-38
2022/10/17 11:27:48;;;;;;;;;;;;;;;32.60;64.68;100664.41;5051246;28;66648;-36
2022/10/17 11:30:22;;;;;;;9.38;8.38;;;;;;;32.05;62.86;100541.53;5061981;28;70794;-37
2022/10/17 11:32:59;;;;;;;11.90;9.70;;;;;;;32.90;63.45;100692.22;5060210;28;65511;-37
2022/10/17 11:35:38;;;;;;;10.45;9.00;;;;;;;32.78;63.95;100669.69;5063972;28;70349;-36
2022/10/17 11:38:14;;;;;;;10.27;9.48;;;;;;;32.89;64.19;100697.91;5060268;28;65949;-36
2022/10/17 11:40:51;;;;;;;11.02;8.90;;;;;;;32.37;63.25;100609.00;5059753;28;69620;-37
2022/10/17 11:43:27;;;;;;;16.02;9.68;;;;;;;32.73;64.27;100683.13;5054303;28;66353;-42
2022/10/17 11:46:11;;;;;;;13.52;10.82;;;;;;;32.72;64.38;100684.22;5055619;28;70399;-37
2022/10/17 11:49:05;;;;;;;16.48;10.68;;;;;;;32.41;64.06;100631.09;5056622;28;65463;-37
2022/10/17 11:51:50;;;;;;;11.88;10.38;;;;;;;32.29;64.70;100633.81;5057287;28;70155;-37
2022/10/17 11:54:45;;;;;;;18.23;10.52;;;;;;;32.81;64.52;100723.53;5054314;28;64737;-37
2022/10/17 11:57:17;;;;;;;12.73;10.38;;;;;;;32.82;63.71;100727.91;5050402;28;70283;-37
2022/10/17 12:00:06;;;;;;;15.73;10.50;;;;;;;32.81;64.05;100733.56;5058585;28;66893;-37
2022/10/17 12:02:59;;;;;;;17.60;10.45;;;;;;;32.44;66.03;100731.06;5056500;28;69003;-37
2022/10/17 12:06:05;;;;;;;14.30;10.07;;;;;;;32.16;67.55;100748.00;5055879;28;66173;-37
2022/10/17 12:09:14;;;;;;;13.65;9.80;;;;;;;31.57;68.10;100675.38;5027033;28;69978;-37
2022/10/17 12:11:52;;;;;;;12.68;10.23;;;;;;;32.06;68.42;100767.53;5054531;28;66209;-36
2022/10/17 12:14:45;;;;;;;11.32;10.25;;;;;;;31.93;68.78;100757.72;5058067;28;70815;-37